createdAt,value
2024-05-09T00:00:43.987Z,94818.00
2024-05-09T00:03:13.942Z,94828.00
2024-05-09T00:05:41.933Z,94829.00
2024-05-09T00:08:10.965Z,94833.00
2024-05-09T00:10:40.075Z,94820.00
2024-05-09T00:13:09.058Z,94830.00
2024-05-09T00:15:36.959Z,94828.00
2024-05-09T00:18:08.060Z,94826.00
2024-05-09T00:20:40.729Z,94823.00
2024-05-09T00:23:13.626Z,94826.00
2024-05-09T00:25:43.269Z,94807.00
2024-05-09T00:28:13.449Z,94813.00
2024-05-09T00:30:43.381Z,94807.00
2024-05-09T00:33:11.477Z,94811.00
2024-05-09T00:35:39.354Z,94802.00
2024-05-09T00:38:06.725Z,94812.00
2024-05-09T00:40:43.211Z,94806.00
2024-05-09T00:43:12.956Z,94807.00
2024-05-09T00:45:45.954Z,94807.00
2024-05-09T00:48:19.644Z,94802.00
2024-05-09T00:50:49.043Z,94807.00
2024-05-09T00:53:19.379Z,94806.00
2024-05-09T00:55:47.672Z,94806.00
2024-05-09T00:58:18.657Z,94801.00
2024-05-09T01:00:46.016Z,94803.00
2024-05-09T01:03:14.341Z,94805.00
2024-05-09T01:05:43.521Z,94807.00
2024-05-09T01:08:13.964Z,94795.00
2024-05-09T01:10:44.202Z,94797.00
2024-05-09T01:13:13.173Z,94794.00
2024-05-09T01:15:40.302Z,94803.00
2024-05-09T01:18:11.508Z,94795.00
2024-05-09T01:20:42.976Z,94792.00
2024-05-09T01:23:14.391Z,94797.00
2024-05-09T01:25:43.865Z,94797.00
2024-05-09T01:28:13.613Z,94796.00
2024-05-09T01:30:40.697Z,94789.00
2024-05-09T01:33:12.183Z,94789.00
2024-05-09T01:35:41.836Z,94799.00
2024-05-09T01:38:12.868Z,94794.00
2024-05-09T01:40:40.582Z,94797.00
2024-05-09T01:43:09.558Z,94794.00
2024-05-09T01:45:38.271Z,94801.00
2024-05-09T01:48:06.098Z,94801.00
2024-05-09T01:50:40.099Z,94795.00
2024-05-09T01:53:15.658Z,94798.00
2024-05-09T01:55:47.172Z,94798.00
2024-05-09T01:58:14.428Z,94802.00
2024-05-09T02:00:43.061Z,94797.00
2024-05-09T02:03:16.110Z,94799.00
2024-05-09T02:05:47.253Z,94795.00
2024-05-09T02:08:17.779Z,94793.00
2024-05-09T02:10:46.760Z,94795.00
2024-05-09T02:13:17.004Z,94794.00
2024-05-09T02:15:46.757Z,94787.00
2024-05-09T02:18:16.121Z,94787.00
2024-05-09T02:20:43.959Z,94787.00
2024-05-09T02:23:12.368Z,94779.00
2024-05-09T02:25:41.047Z,94778.00
2024-05-09T02:28:08.390Z,94781.00
2024-05-09T02:30:40.008Z,94777.00
2024-05-09T02:33:11.827Z,94782.00
2024-05-09T02:35:41.017Z,94777.00
2024-05-09T02:38:09.859Z,94775.00
2024-05-09T02:40:39.108Z,94776.00
2024-05-09T02:43:13.633Z,94777.00
2024-05-09T02:45:41.005Z,94774.00
2024-05-09T02:48:12.466Z,94773.00
2024-05-09T02:50:44.366Z,94773.00
2024-05-09T02:53:14.661Z,94769.00
2024-05-09T02:55:42.942Z,94768.00
2024-05-09T02:58:10.932Z,94771.00
2024-05-09T03:00:41.370Z,94774.00
2024-05-09T03:03:15.961Z,94781.00
2024-05-09T03:05:44.487Z,94779.00
2024-05-09T03:08:12.039Z,94769.00
2024-05-09T03:10:43.929Z,94779.00
2024-05-09T03:13:15.066Z,94780.00
2024-05-09T03:15:46.299Z,94776.00
2024-05-09T03:18:13.907Z,94779.00
2024-05-09T03:20:41.232Z,94775.00
2024-05-09T03:23:09.865Z,94774.00
2024-05-09T03:25:38.660Z,94779.00
2024-05-09T03:28:06.413Z,94782.00
2024-05-09T03:30:41.077Z,94779.00
2024-05-09T03:33:19.211Z,94783.00
2024-05-09T03:35:48.389Z,94778.00
2024-05-09T03:38:16.114Z,94772.00
2024-05-09T03:40:50.896Z,94777.00
2024-05-09T03:43:19.559Z,94770.00
2024-05-09T03:45:49.613Z,94772.00
2024-05-09T03:48:19.433Z,94770.00
2024-05-09T03:50:47.168Z,94757.00
2024-05-09T03:53:17.006Z,94764.00
2024-05-09T03:55:44.286Z,94768.00
2024-05-09T03:58:12.975Z,94776.00
2024-05-09T04:00:41.436Z,94776.00
2024-05-09T04:03:11.120Z,94770.00
2024-05-09T04:05:45.239Z,94765.00
2024-05-09T04:08:12.402Z,94773.00
2024-05-09T04:10:42.318Z,94781.00
2024-05-09T04:13:12.714Z,94773.00
2024-05-09T04:15:39.866Z,94772.00
2024-05-09T04:18:07.284Z,94772.00
2024-05-09T04:20:38.951Z,94763.00
2024-05-09T04:23:12.418Z,94776.00
2024-05-09T04:25:45.123Z,94783.00
2024-05-09T04:28:13.240Z,94777.00
2024-05-09T04:30:41.665Z,94769.00
2024-05-09T04:33:12.286Z,94780.00
2024-05-09T04:35:45.149Z,94783.00
2024-05-09T04:38:14.022Z,94789.00
2024-05-09T04:40:44.363Z,94795.00
2024-05-09T04:43:20.554Z,94782.00
2024-05-09T04:45:47.621Z,94786.00
2024-05-09T04:48:15.022Z,94783.00
2024-05-09T04:50:42.594Z,94795.00
2024-05-09T04:53:13.049Z,94792.00
2024-05-09T04:55:45.194Z,94802.00
2024-05-09T04:58:12.359Z,94797.00
2024-05-09T05:00:40.706Z,94796.00
2024-05-09T05:03:13.060Z,94791.00
2024-05-09T05:05:43.401Z,94800.00
2024-05-09T05:08:20.380Z,94797.00
2024-05-09T05:10:50.315Z,94798.00
2024-05-09T05:13:23.928Z,94798.00
2024-05-09T05:15:57.484Z,94801.00
2024-05-09T05:18:27.538Z,94805.00
2024-05-09T05:21:01.239Z,94798.00
2024-05-09T05:23:28.411Z,94793.00
2024-05-09T05:25:55.833Z,94789.00
2024-05-09T05:28:23.609Z,94796.00
2024-05-09T05:30:50.869Z,94803.00
2024-05-09T05:33:19.137Z,94799.00
2024-05-09T05:35:46.737Z,94788.00
2024-05-09T05:38:14.203Z,94801.00
2024-05-09T05:43:17.996Z,94803.00
2024-05-09T05:45:47.804Z,94799.00
2024-05-09T05:48:17.825Z,94800.00
2024-05-09T05:50:45.740Z,94793.00
2024-05-09T05:53:13.306Z,94800.00
2024-05-09T05:55:41.196Z,94800.00
2024-05-09T05:58:16.836Z,94800.00
2024-05-09T06:00:44.140Z,94796.00
2024-05-09T06:03:14.878Z,94797.00
2024-05-09T06:05:46.027Z,94794.00
2024-05-09T06:08:13.272Z,94798.00
2024-05-09T06:10:41.490Z,94795.00
2024-05-09T06:13:13.137Z,94796.00
2024-05-09T06:15:41.332Z,94805.00
2024-05-09T06:18:11.126Z,94803.00
2024-05-09T06:20:40.412Z,94798.00
2024-05-09T06:23:10.041Z,94802.00
2024-05-09T06:25:38.166Z,94792.00
2024-05-09T06:28:05.907Z,94807.00
2024-05-09T06:33:06.049Z,94811.00
2024-05-09T06:35:34.150Z,94805.00
2024-05-09T06:38:01.762Z,94810.00
2024-05-09T06:40:37.750Z,94806.00
2024-05-09T06:43:18.786Z,94813.00
2024-05-09T06:45:55.159Z,94809.00
2024-05-09T06:48:22.823Z,94806.00
2024-05-09T06:50:50.829Z,94809.00
2024-05-09T06:53:21.010Z,94807.00
2024-05-09T06:55:48.155Z,94807.00
2024-05-09T06:58:15.989Z,94804.00
2024-05-09T07:00:43.249Z,94817.00
2024-05-09T07:03:17.147Z,94807.00
2024-05-09T07:05:47.664Z,94800.00
2024-05-09T07:08:18.688Z,94794.00
2024-05-09T07:10:46.371Z,94795.00
2024-05-09T07:13:15.228Z,94797.00
2024-05-09T07:15:43.775Z,94799.00
2024-05-09T07:18:17.795Z,94803.00
2024-05-09T07:20:49.581Z,94797.00
2024-05-09T07:23:18.124Z,94801.00
2024-05-09T07:25:45.640Z,94795.00
2024-05-09T07:28:17.518Z,94802.00
2024-05-09T07:30:48.234Z,94792.00
2024-05-09T07:33:23.703Z,94798.00
2024-05-09T07:35:52.157Z,94791.00
2024-05-09T07:38:21.954Z,94785.00
2024-05-09T07:40:51.846Z,94787.00
2024-05-09T07:43:18.872Z,94784.00
2024-05-09T07:45:52.402Z,94777.00
2024-05-09T07:52:39.135Z,94787.00
2024-05-09T07:53:47.663Z,94786.00
2024-05-09T07:56:19.839Z,94784.00
2024-05-09T07:58:56.370Z,94775.00
2024-05-09T08:01:26.375Z,94778.00
2024-05-09T08:03:54.520Z,94779.00
2024-05-09T08:06:21.919Z,94772.00
2024-05-09T08:08:49.041Z,94783.00
2024-05-09T08:11:16.137Z,94772.00
2024-05-09T08:13:48.286Z,94779.00
2024-05-09T08:16:22.987Z,94772.00
2024-05-09T08:18:50.219Z,94775.00
2024-05-09T08:21:19.550Z,94773.00
2024-05-09T08:23:49.127Z,94775.00
2024-05-09T08:26:16.211Z,94778.00
2024-05-09T08:28:43.268Z,94773.00
2024-05-09T08:31:11.669Z,94773.00
2024-05-09T08:33:48.109Z,94772.00
2024-05-09T08:36:15.374Z,94766.00
2024-05-09T08:38:44.850Z,94774.00
2024-05-09T08:41:14.733Z,94777.00
2024-05-09T08:43:43.840Z,94773.00
2024-05-09T08:46:13.381Z,94766.00
2024-05-09T08:48:43.257Z,94776.00
2024-05-09T08:51:10.373Z,94774.00
2024-05-09T08:53:37.429Z,94770.00
2024-05-09T08:56:06.996Z,94771.00
2024-05-09T08:58:40.173Z,94774.00
2024-05-09T09:01:10.062Z,94776.00
2024-05-09T09:03:38.473Z,94771.00
2024-05-09T09:06:18.223Z,94764.00
2024-05-09T09:08:46.396Z,94774.00
2024-05-09T09:11:13.683Z,94771.00
2024-05-09T09:13:40.756Z,94769.00
2024-05-09T09:16:08.111Z,94766.00
2024-05-09T09:18:37.597Z,94759.00
2024-05-09T09:21:12.863Z,94760.00
2024-05-09T09:23:44.648Z,94753.00
2024-05-09T09:26:18.524Z,94747.00
2024-05-09T09:28:45.741Z,94744.00
2024-05-09T09:31:12.818Z,94752.00
2024-05-09T09:33:43.496Z,94759.00
2024-05-09T09:36:14.288Z,94756.00
2024-05-09T09:38:43.877Z,94754.00
2024-05-09T09:41:11.211Z,94760.00
2024-05-09T09:43:40.862Z,94770.00
2024-05-09T09:46:12.329Z,94763.00
2024-05-09T09:48:41.464Z,94762.00
2024-05-09T09:51:09.767Z,94760.00
2024-05-09T09:53:38.534Z,94764.00
2024-05-09T09:56:10.351Z,94758.00
2024-05-09T09:58:40.466Z,94762.00
2024-05-09T10:01:10.602Z,94757.00
2024-05-09T10:03:41.204Z,94758.00
2024-05-09T10:06:10.847Z,94755.00
2024-05-09T10:08:38.213Z,94758.00
2024-05-09T10:11:07.890Z,94758.00
2024-05-09T10:13:40.698Z,94757.00
2024-05-09T10:16:11.820Z,94761.00
2024-05-09T10:18:42.299Z,94753.00
2024-05-09T10:21:18.663Z,94762.00
2024-05-09T10:24:02.097Z,94758.00
2024-05-09T10:26:34.010Z,94751.00
2024-05-09T10:29:16.820Z,94756.00
2024-05-09T10:31:48.125Z,94755.00
2024-05-09T10:34:20.106Z,94750.00
2024-05-09T10:36:53.132Z,94754.00
2024-05-09T10:39:24.572Z,94757.00
2024-05-09T10:41:51.617Z,94761.00
2024-05-09T10:44:18.864Z,94734.00
2024-05-09T10:46:50.372Z,94752.00
2024-05-09T10:49:17.695Z,94748.00
2024-05-09T10:51:48.702Z,94748.00
2024-05-09T10:54:15.814Z,94741.00
2024-05-09T10:56:45.324Z,94746.00
2024-05-09T10:59:13.296Z,94751.00
2024-05-09T11:01:41.025Z,94748.00
2024-05-09T11:04:08.844Z,94738.00
2024-05-09T11:06:38.230Z,94721.00
2024-05-09T11:09:07.986Z,94726.00
2024-05-09T11:11:35.087Z,94728.00
2024-05-09T11:14:12.972Z,94721.00
2024-05-09T11:16:40.021Z,94726.00
2024-05-09T11:19:15.201Z,94728.00
2024-05-09T11:21:44.763Z,94721.00
2024-05-09T11:24:12.246Z,94724.00
2024-05-09T11:26:39.281Z,94719.00
2024-05-09T11:29:06.358Z,94716.00
2024-05-09T11:31:35.115Z,94718.00
2024-05-09T11:34:05.412Z,94726.00
2024-05-09T11:36:32.561Z,94733.00
2024-05-09T11:38:59.600Z,94725.00
2024-05-09T11:41:31.159Z,94717.00
2024-05-09T11:43:58.249Z,94720.00
2024-05-09T11:46:27.598Z,94726.00
2024-05-09T11:48:55.003Z,94731.00
2024-05-09T11:51:22.108Z,94723.00
2024-05-09T11:53:49.086Z,94727.00
2024-05-09T11:56:17.479Z,94731.00
2024-05-09T11:58:44.572Z,94720.00
2024-05-09T12:01:11.657Z,94716.00
2024-05-09T12:03:38.892Z,94718.00
2024-05-09T12:06:08.742Z,94719.00
2024-05-09T12:08:35.744Z,94717.00
2024-05-09T12:11:10.121Z,94715.00
2024-05-09T12:13:39.514Z,94708.00
2024-05-09T12:16:09.868Z,94710.00
2024-05-09T12:18:36.977Z,94707.00
2024-05-09T12:21:04.379Z,94703.00
2024-05-09T12:23:31.420Z,94707.00
2024-05-09T12:25:58.501Z,94704.00
2024-05-09T12:28:26.506Z,94702.00
2024-05-09T12:30:53.673Z,94701.00
2024-05-09T12:33:21.754Z,94695.00
2024-05-09T12:35:51.746Z,94697.00
2024-05-09T12:38:18.942Z,94694.00
2024-05-09T12:40:50.791Z,94702.00
2024-05-09T12:43:18.075Z,94709.00
2024-05-09T12:45:45.293Z,94703.00
2024-05-09T12:48:13.260Z,94698.00
2024-05-09T12:50:41.141Z,94710.00
2024-05-09T12:53:08.532Z,94710.00
2024-05-09T12:55:44.486Z,94699.00
2024-05-09T12:58:22.839Z,94700.00
2024-05-09T13:00:55.833Z,94697.00
2024-05-09T13:03:23.151Z,94697.00
2024-05-09T13:05:51.593Z,94692.00
2024-05-09T13:08:20.347Z,94692.00
2024-05-09T13:10:47.809Z,94694.00
2024-05-09T13:13:17.243Z,94697.00
2024-05-09T13:15:44.450Z,94685.00
2024-05-09T13:18:11.564Z,94690.00
2024-05-09T13:20:38.797Z,94690.00
2024-05-09T13:23:08.111Z,94683.00
2024-05-09T13:25:36.932Z,94679.00
2024-05-09T13:28:05.796Z,94677.00
2024-05-09T13:30:40.298Z,94675.00
2024-05-09T13:33:14.924Z,94674.00
2024-05-09T13:35:47.249Z,94674.00
2024-05-09T13:38:21.361Z,94674.00
2024-05-09T13:40:49.224Z,94669.00
2024-05-09T13:43:17.824Z,94665.00
2024-05-09T13:45:47.466Z,94670.00
2024-05-09T13:48:14.710Z,94663.00
2024-05-09T13:50:41.963Z,94668.00
2024-05-09T13:53:09.351Z,94665.00
2024-05-09T13:55:42.437Z,94667.00
2024-05-09T13:58:09.886Z,94664.00
2024-05-09T14:00:46.429Z,94666.00
2024-05-09T14:03:18.688Z,94658.00
2024-05-09T14:05:47.937Z,94659.00
2024-05-09T14:08:22.264Z,94658.00
2024-05-09T14:10:50.463Z,94657.00
2024-05-09T14:13:17.876Z,94650.00
2024-05-09T14:15:48.589Z,94645.00
2024-05-09T14:18:15.831Z,94648.00
2024-05-09T14:20:43.324Z,94646.00
2024-05-09T14:23:10.759Z,94647.00
2024-05-09T14:25:42.540Z,94647.00
2024-05-09T14:28:11.347Z,94649.00
2024-05-09T14:30:39.266Z,94646.00
2024-05-09T14:33:10.190Z,94639.00
2024-05-09T14:35:39.878Z,94645.00
2024-05-09T14:38:10.108Z,94637.00
2024-05-09T14:40:42.444Z,94636.00
2024-05-09T14:43:15.950Z,94636.00
2024-05-09T14:45:44.452Z,94637.00
2024-05-09T14:48:15.744Z,94642.00
2024-05-09T14:50:43.373Z,94641.00
2024-05-09T14:53:12.334Z,94635.00
2024-05-09T14:55:41.516Z,94634.00
2024-05-09T14:58:10.694Z,94634.00
2024-05-09T15:00:45.769Z,94622.00
2024-05-09T15:03:17.958Z,94622.00
2024-05-09T15:05:45.652Z,94619.00
2024-05-09T15:08:13.171Z,94620.00
2024-05-09T15:10:40.454Z,94608.00
2024-05-09T15:13:09.641Z,94613.00
2024-05-09T15:15:38.441Z,94616.00
2024-05-09T15:18:08.165Z,94611.00
2024-05-09T15:20:37.149Z,94620.00
2024-05-09T15:23:06.848Z,94585.00
2024-05-09T15:25:40.328Z,94615.00
2024-05-09T15:28:08.301Z,94600.00
2024-05-09T15:30:36.374Z,94608.00
2024-05-09T15:33:07.332Z,94615.00
2024-05-09T15:35:35.560Z,94607.00
2024-05-09T15:38:03.794Z,94608.00
2024-05-09T15:40:39.733Z,94613.00
2024-05-09T15:43:12.048Z,94605.00
2024-05-09T15:45:41.210Z,94608.00
2024-05-09T15:48:11.729Z,94614.00
2024-05-09T15:50:42.898Z,94606.00
2024-05-09T15:53:12.392Z,94611.00
2024-05-09T15:55:43.459Z,94609.00
2024-05-09T15:58:11.321Z,94612.00
2024-05-09T16:00:42.067Z,94607.00
2024-05-09T16:03:12.501Z,94608.00
2024-05-09T16:05:44.021Z,94608.00
2024-05-09T16:08:17.088Z,94620.00
2024-05-09T16:10:47.608Z,94618.00
2024-05-09T16:13:16.700Z,94607.00
2024-05-09T16:15:44.573Z,94619.00
2024-05-09T16:18:12.433Z,94615.00
2024-05-09T16:20:41.760Z,94615.00
2024-05-09T16:23:11.042Z,94612.00
2024-05-09T16:25:39.399Z,94615.00
2024-05-09T16:28:10.645Z,94615.00
2024-05-09T16:30:43.304Z,94605.00
2024-05-09T16:33:19.074Z,94603.00
2024-05-09T16:35:46.411Z,94608.00
2024-05-09T16:38:13.609Z,94606.00
2024-05-09T16:40:41.587Z,94608.00
2024-05-09T16:43:13.192Z,94609.00
2024-05-09T16:45:45.097Z,94614.00
2024-05-09T16:48:13.167Z,94604.00
2024-05-09T16:50:40.448Z,94605.00
2024-05-09T16:53:07.686Z,94602.00
2024-05-09T16:55:38.483Z,94601.00
2024-05-09T16:58:08.238Z,94598.00
2024-05-09T17:00:43.265Z,94605.00
2024-05-09T17:03:15.767Z,94605.00
2024-05-09T17:05:46.616Z,94605.00
2024-05-09T17:08:16.916Z,94594.00
2024-05-09T17:10:46.536Z,94601.00
2024-05-09T17:13:14.046Z,94599.00
2024-05-09T17:15:41.495Z,94597.00
2024-05-09T17:18:11.295Z,94599.00
2024-05-09T17:20:38.430Z,94594.00
2024-05-09T17:23:15.548Z,94598.00
2024-05-09T17:25:45.170Z,94603.00
2024-05-09T17:28:12.684Z,94599.00
2024-05-09T17:30:42.989Z,94600.00
2024-05-09T17:33:11.620Z,94607.00
2024-05-09T17:35:39.801Z,94608.00
2024-05-09T17:38:09.406Z,94596.00
2024-05-09T17:40:38.260Z,94608.00
2024-05-09T17:43:08.968Z,94599.00
2024-05-09T17:45:41.739Z,94602.00
2024-05-09T17:48:11.379Z,94608.00
2024-05-09T17:50:42.311Z,94606.00
2024-05-09T17:53:10.818Z,94604.00
2024-05-09T17:55:39.265Z,94611.00
2024-05-09T17:58:06.652Z,94614.00
2024-05-09T18:00:39.986Z,94618.00
2024-05-09T18:03:13.911Z,94620.00
2024-05-09T18:05:42.879Z,94613.00
2024-05-09T18:08:11.164Z,94611.00
2024-05-09T18:10:40.861Z,94619.00
2024-05-09T18:13:12.971Z,94617.00
2024-05-09T18:15:40.689Z,94613.00
2024-05-09T18:18:09.191Z,94620.00
2024-05-09T18:20:44.002Z,94620.00
2024-05-09T18:23:16.414Z,94624.00
2024-05-09T18:25:45.335Z,94625.00
2024-05-09T18:28:12.586Z,94619.00
2024-05-09T18:30:40.682Z,94618.00
2024-05-09T18:33:10.613Z,94620.00
2024-05-09T18:35:41.298Z,94620.00
2024-05-09T18:38:09.512Z,94627.00
2024-05-09T18:40:38.321Z,94618.00
2024-05-09T18:43:08.485Z,94633.00
2024-05-09T18:45:37.983Z,94627.00
2024-05-09T18:48:09.712Z,94628.00
2024-05-09T18:50:42.104Z,94631.00
2024-05-09T18:53:14.071Z,94629.00
2024-05-09T18:55:42.602Z,94636.00
2024-05-09T18:58:10.010Z,94629.00
2024-05-09T19:00:39.942Z,94627.00
2024-05-09T19:03:12.672Z,94627.00
2024-05-09T19:05:43.243Z,94636.00
2024-05-09T19:08:11.623Z,94636.00
2024-05-09T19:10:42.055Z,94648.00
2024-05-09T19:13:12.440Z,94651.00
2024-05-09T19:15:43.879Z,94646.00
2024-05-09T19:18:15.874Z,94650.00
2024-05-09T19:20:44.173Z,94649.00
2024-05-09T19:23:12.068Z,94650.00
2024-05-09T19:25:39.247Z,94657.00
2024-05-09T19:28:09.435Z,94656.00
2024-05-09T19:30:40.768Z,94656.00
2024-05-09T19:33:12.810Z,94659.00
2024-05-09T19:35:44.242Z,94664.00
2024-05-09T19:38:14.189Z,94662.00
2024-05-09T19:40:41.381Z,94666.00
2024-05-09T19:43:08.691Z,94665.00
2024-05-09T19:45:40.445Z,94664.00
2024-05-09T19:48:10.899Z,94666.00
2024-05-09T19:50:43.763Z,94668.00
2024-05-09T19:53:15.475Z,94668.00
2024-05-09T19:55:45.130Z,94664.00
2024-05-09T19:58:14.636Z,94676.00
2024-05-09T20:00:43.558Z,94675.00
2024-05-09T20:03:15.295Z,94674.00
2024-05-09T20:05:45.550Z,94668.00
2024-05-09T20:08:13.423Z,94670.00
2024-05-09T20:10:40.560Z,94674.00
2024-05-09T20:13:08.459Z,94681.00
2024-05-09T20:15:39.235Z,94673.00
2024-05-09T20:18:07.206Z,94677.00
2024-05-09T20:20:39.559Z,94672.00
2024-05-09T20:23:12.941Z,94673.00
2024-05-09T20:25:43.894Z,94679.00
2024-05-09T20:28:11.334Z,94678.00
2024-05-09T20:30:38.630Z,94673.00
2024-05-09T20:33:07.606Z,94679.00
2024-05-09T20:35:36.008Z,94678.00
2024-05-09T20:38:04.013Z,94679.00
2024-05-09T20:40:35.707Z,94670.00
2024-05-09T20:43:06.852Z,94684.00
2024-05-09T20:45:36.921Z,94682.00
2024-05-09T20:48:07.155Z,94688.00
2024-05-09T20:50:39.363Z,94684.00
2024-05-09T20:53:13.925Z,94680.00
2024-05-09T20:55:42.873Z,94683.00
2024-05-09T20:58:10.575Z,94679.00
2024-05-09T21:00:41.520Z,94670.00
2024-05-09T21:03:12.963Z,94678.00
2024-05-09T21:05:41.074Z,94683.00
2024-05-09T21:08:08.517Z,94679.00
2024-05-09T21:10:36.997Z,94684.00
2024-05-09T21:13:05.484Z,94678.00
2024-05-09T21:15:33.544Z,94677.00
2024-05-09T21:18:00.718Z,94683.00
2024-05-09T21:20:31.605Z,94680.00
2024-05-09T21:23:01.296Z,94676.00
2024-05-09T21:25:28.722Z,94683.00
2024-05-09T21:27:58.944Z,94662.00
2024-05-09T21:30:32.943Z,94670.00
2024-05-09T21:33:08.803Z,94673.00
2024-05-09T21:35:36.543Z,94665.00
2024-05-09T21:38:04.504Z,94649.00
2024-05-09T21:40:34.974Z,94675.00
2024-05-09T21:43:04.795Z,94631.00
2024-05-09T21:45:32.399Z,94665.00
2024-05-09T21:47:59.828Z,94662.00
2024-05-09T21:50:35.864Z,94658.00
2024-05-09T21:53:07.338Z,94665.00
2024-05-09T21:55:36.644Z,94653.00
2024-05-09T21:58:06.899Z,94665.00
2024-05-09T22:00:38.216Z,94658.00
2024-05-09T22:03:10.506Z,94657.00
2024-05-09T22:05:42.055Z,94658.00
2024-05-09T22:08:09.904Z,94656.00
2024-05-09T22:10:39.221Z,94648.00
2024-05-09T22:13:07.336Z,94651.00
2024-05-09T22:15:37.683Z,94649.00
2024-05-09T22:18:09.844Z,94654.00
2024-05-09T22:20:43.696Z,94653.00
2024-05-09T22:23:11.906Z,94646.00
2024-05-09T22:25:41.355Z,94648.00
2024-05-09T22:28:08.552Z,94648.00
2024-05-09T22:30:39.053Z,94654.00
2024-05-09T22:33:11.787Z,94645.00
2024-05-09T22:35:40.727Z,94658.00
2024-05-09T22:38:08.456Z,94654.00
2024-05-09T22:40:46.095Z,94652.00
2024-05-09T22:43:22.332Z,94655.00
2024-05-09T22:45:56.637Z,94663.00
2024-05-09T22:48:25.334Z,94658.00
2024-05-09T22:50:57.061Z,94654.00
2024-05-09T22:53:25.536Z,94647.00
2024-05-09T22:55:52.755Z,94649.00
2024-05-09T22:58:23.010Z,94650.00
2024-05-09T23:00:50.360Z,94635.00
2024-05-09T23:03:20.838Z,94651.00
2024-05-09T23:05:48.227Z,94642.00
2024-05-09T23:08:15.227Z,94639.00
2024-05-09T23:10:42.303Z,94647.00
2024-05-09T23:13:09.472Z,94645.00
2024-05-09T23:15:38.450Z,94639.00
2024-05-09T23:18:07.067Z,94642.00
2024-05-09T23:20:38.415Z,94633.00
2024-05-09T23:23:08.348Z,94635.00
2024-05-09T23:25:37.052Z,94640.00
2024-05-09T23:28:04.681Z,94636.00
2024-05-09T23:30:37.684Z,94625.00
2024-05-09T23:33:12.645Z,94628.00
2024-05-09T23:35:42.234Z,94626.00
2024-05-09T23:38:11.757Z,94627.00
2024-05-09T23:40:40.963Z,94628.00
2024-05-09T23:43:14.970Z,94629.00
2024-05-09T23:45:43.216Z,94625.00
2024-05-09T23:48:11.085Z,94625.00
2024-05-09T23:50:39.948Z,94615.00
2024-05-09T23:53:09.383Z,94624.00
2024-05-09T23:55:39.736Z,94624.00
2024-05-09T23:58:11.295Z,94625.00
